sensor_id;sensor_type;location;lat;lon;timestamp;P1;durP1;ratioP1;P2;durP2;ratioP2
75603;SDS011;64187;51.010;13.792;2023-03-29T00:01:21;5.43;;;2.78;;
75603;SDS011;64187;51.010;13.792;2023-03-29T00:06:33;7.20;;;2.67;;
75603;SDS011;64187;51.010;13.792;2023-03-29T00:11:32;4.85;;;2.47;;
75603;SDS011;64187;51.010;13.792;2023-03-29T00:16:31;8.30;;;2.80;;
75603;SDS011;64187;51.010;13.792;2023-03-29T00:21:30;7.00;;;2.42;;
75603;SDS011;64187;51.010;13.792;2023-03-29T00:26:29;3.35;;;2.30;;
75603;SDS011;64187;51.010;13.792;2023-03-29T00:31:28;3.85;;;1.98;;
75603;SDS011;64187;51.010;13.792;2023-03-29T00:36:27;7.80;;;2.45;;
75603;SDS011;64187;51.010;13.792;2023-03-29T00:41:26;5.13;;;2.33;;
75603;SDS011;64187;51.010;13.792;2023-03-29T00:46:26;7.95;;;2.78;;
75603;SDS011;64187;51.010;13.792;2023-03-29T00:51:27;5.30;;;2.00;;
75603;SDS011;64187;51.010;13.792;2023-03-29T00:56:31;8.88;;;2.58;;
75603;SDS011;64187;51.010;13.792;2023-03-29T01:01:41;3.10;;;2.10;;
75603;SDS011;64187;51.010;13.792;2023-03-29T01:06:47;4.47;;;2.17;;
75603;SDS011;64187;51.010;13.792;2023-03-29T01:11:52;5.03;;;2.15;;
75603;SDS011;64187;51.010;13.792;2023-03-29T01:16:54;6.65;;;2.13;;
75603;SDS011;64187;51.010;13.792;2023-03-29T01:22:03;3.80;;;2.28;;
75603;SDS011;64187;51.010;13.792;2023-03-29T01:27:48;3.25;;;1.90;;
75603;SDS011;64187;51.010;13.792;2023-03-29T01:32:53;7.97;;;2.30;;
75603;SDS011;64187;51.010;13.792;2023-03-29T01:37:59;5.60;;;2.40;;
75603;SDS011;64187;51.010;13.792;2023-03-29T01:48:08;5.55;;;2.58;;
75603;SDS011;64187;51.010;13.792;2023-03-29T01:53:20;5.38;;;2.30;;
75603;SDS011;64187;51.010;13.792;2023-03-29T01:58:26;4.68;;;2.10;;
75603;SDS011;64187;51.010;13.792;2023-03-29T02:03:31;3.78;;;2.25;;
75603;SDS011;64187;51.010;13.792;2023-03-29T02:08:39;5.65;;;2.60;;
75603;SDS011;64187;51.010;13.792;2023-03-29T02:13:39;5.95;;;2.20;;
75603;SDS011;64187;51.010;13.792;2023-03-29T02:18:39;7.63;;;2.40;;
75603;SDS011;64187;51.010;13.792;2023-03-29T02:23:42;5.80;;;2.20;;
75603;SDS011;64187;51.010;13.792;2023-03-29T02:28:44;6.68;;;2.38;;
75603;SDS011;64187;51.010;13.792;2023-03-29T02:33:53;7.07;;;2.70;;
75603;SDS011;64187;51.010;13.792;2023-03-29T02:43:56;6.90;;;2.85;;
75603;SDS011;64187;51.010;13.792;2023-03-29T02:48:57;7.20;;;2.58;;
75603;SDS011;64187;51.010;13.792;2023-03-29T02:53:58;7.07;;;2.63;;
75603;SDS011;64187;51.010;13.792;2023-03-29T02:58:59;5.85;;;2.90;;
75603;SDS011;64187;51.010;13.792;2023-03-29T03:03:57;5.55;;;2.13;;
75603;SDS011;64187;51.010;13.792;2023-03-29T03:08:56;8.43;;;3.15;;
75603;SDS011;64187;51.010;13.792;2023-03-29T03:13:55;10.23;;;3.22;;
75603;SDS011;64187;51.010;13.792;2023-03-29T03:18:54;5.57;;;2.80;;
75603;SDS011;64187;51.010;13.792;2023-03-29T03:23:53;9.38;;;2.88;;
75603;SDS011;64187;51.010;13.792;2023-03-29T03:28:53;7.78;;;2.60;;
75603;SDS011;64187;51.010;13.792;2023-03-29T03:34:12;5.72;;;2.45;;
75603;SDS011;64187;51.010;13.792;2023-03-29T03:39:19;6.70;;;3.28;;
75603;SDS011;64187;51.010;13.792;2023-03-29T03:44:18;7.35;;;2.47;;
75603;SDS011;64187;51.010;13.792;2023-03-29T03:49:26;6.05;;;2.58;;
75603;SDS011;64187;51.010;13.792;2023-03-29T03:54:25;5.10;;;2.45;;
75603;SDS011;64187;51.010;13.792;2023-03-29T03:59:43;7.68;;;2.90;;
75603;SDS011;64187;51.010;13.792;2023-03-29T04:04:46;6.97;;;3.00;;
75603;SDS011;64187;51.010;13.792;2023-03-29T04:09:49;6.00;;;3.00;;
75603;SDS011;64187;51.010;13.792;2023-03-29T04:15:01;7.72;;;3.80;;
75603;SDS011;64187;51.010;13.792;2023-03-29T04:20:01;7.72;;;3.85;;
75603;SDS011;64187;51.010;13.792;2023-03-29T04:25:09;8.18;;;3.03;;
75603;SDS011;64187;51.010;13.792;2023-03-29T04:30:17;6.18;;;3.20;;
75603;SDS011;64187;51.010;13.792;2023-03-29T04:35:41;7.60;;;3.03;;
75603;SDS011;64187;51.010;13.792;2023-03-29T04:40:44;6.45;;;2.80;;
75603;SDS011;64187;51.010;13.792;2023-03-29T04:46:04;7.57;;;3.10;;
75603;SDS011;64187;51.010;13.792;2023-03-29T04:51:43;9.50;;;2.88;;
75603;SDS011;64187;51.010;13.792;2023-03-29T04:56:42;7.55;;;3.60;;
75603;SDS011;64187;51.010;13.792;2023-03-29T05:02:04;8.00;;;3.13;;
75603;SDS011;64187;51.010;13.792;2023-03-29T05:07:07;4.47;;;2.40;;
75603;SDS011;64187;51.010;13.792;2023-03-29T05:12:06;10.80;;;3.13;;
75603;SDS011;64187;51.010;13.792;2023-03-29T05:17:17;9.48;;;3.17;;
75603;SDS011;64187;51.010;13.792;2023-03-29T05:22:17;7.05;;;2.75;;
75603;SDS011;64187;51.010;13.792;2023-03-29T05:27:17;8.57;;;3.42;;
75603;SDS011;64187;51.010;13.792;2023-03-29T05:32:29;6.43;;;2.65;;
75603;SDS011;64187;51.010;13.792;2023-03-29T05:37:28;7.20;;;2.90;;
75603;SDS011;64187;51.010;13.792;2023-03-29T05:42:30;6.55;;;2.80;;
75603;SDS011;64187;51.010;13.792;2023-03-29T05:47:35;6.47;;;3.38;;
75603;SDS011;64187;51.010;13.792;2023-03-29T05:52:35;7.10;;;3.45;;
75603;SDS011;64187;51.010;13.792;2023-03-29T05:57:35;11.27;;;2.95;;
75603;SDS011;64187;51.010;13.792;2023-03-29T06:02:35;6.32;;;2.70;;
75603;SDS011;64187;51.010;13.792;2023-03-29T06:07:41;8.73;;;3.20;;
75603;SDS011;64187;51.010;13.792;2023-03-29T06:18:08;9.75;;;3.13;;
75603;SDS011;64187;51.010;13.792;2023-03-29T06:23:09;4.72;;;2.70;;
75603;SDS011;64187;51.010;13.792;2023-03-29T06:28:08;10.40;;;4.07;;
75603;SDS011;64187;51.010;13.792;2023-03-29T06:33:07;8.40;;;3.00;;
75603;SDS011;64187;51.010;13.792;2023-03-29T06:38:19;9.73;;;3.17;;
75603;SDS011;64187;51.010;13.792;2023-03-29T06:43:27;9.57;;;3.53;;
75603;SDS011;64187;51.010;13.792;2023-03-29T06:48:37;8.30;;;4.38;;
75603;SDS011;64187;51.010;13.792;2023-03-29T06:53:36;10.32;;;3.78;;
75603;SDS011;64187;51.010;13.792;2023-03-29T06:58:36;6.63;;;3.38;;
75603;SDS011;64187;51.010;13.792;2023-03-29T07:03:46;5.70;;;3.28;;
75603;SDS011;64187;51.010;13.792;2023-03-29T07:08:50;9.85;;;3.83;;
75603;SDS011;64187;51.010;13.792;2023-03-29T07:14:08;7.28;;;2.95;;
75603;SDS011;64187;51.010;13.792;2023-03-29T07:19:08;8.32;;;2.88;;
75603;SDS011;64187;51.010;13.792;2023-03-29T07:24:35;9.23;;;3.83;;
75603;SDS011;64187;51.010;13.792;2023-03-29T07:29:34;8.25;;;3.10;;
75603;SDS011;64187;51.010;13.792;2023-03-29T07:34:33;10.40;;;4.22;;
75603;SDS011;64187;51.010;13.792;2023-03-29T07:39:33;5.07;;;2.60;;
75603;SDS011;64187;51.010;13.792;2023-03-29T07:45:02;6.05;;;2.80;;
75603;SDS011;64187;51.010;13.792;2023-03-29T07:50:08;6.53;;;2.72;;
75603;SDS011;64187;51.010;13.792;2023-03-29T07:55:08;5.55;;;2.83;;
75603;SDS011;64187;51.010;13.792;2023-03-29T08:00:41;6.57;;;2.60;;
75603;SDS011;64187;51.010;13.792;2023-03-29T08:06:03;5.18;;;2.45;;
75603;SDS011;64187;51.010;13.792;2023-03-29T08:11:02;7.78;;;2.42;;
75603;SDS011;64187;51.010;13.792;2023-03-29T08:16:24;6.05;;;2.28;;
75603;SDS011;64187;51.010;13.792;2023-03-29T08:21:44;6.55;;;2.90;;
75603;SDS011;64187;51.010;13.792;2023-03-29T08:26:44;9.95;;;2.67;;
75603;SDS011;64187;51.010;13.792;2023-03-29T08:31:48;4.82;;;2.50;;
75603;SDS011;64187;51.010;13.792;2023-03-29T08:36:47;6.30;;;2.40;;
75603;SDS011;64187;51.010;13.792;2023-03-29T08:52:20;8.88;;;3.17;;
75603;SDS011;64187;51.010;13.792;2023-03-29T08:57:31;10.43;;;3.65;;
75603;SDS011;64187;51.010;13.792;2023-03-29T09:02:43;5.75;;;2.90;;
75603;SDS011;64187;51.010;13.792;2023-03-29T09:07:43;7.70;;;3.25;;
75603;SDS011;64187;51.010;13.792;2023-03-29T09:18:05;9.20;;;3.90;;
75603;SDS011;64187;51.010;13.792;2023-03-29T09:39:45;5.82;;;2.95;;
75603;SDS011;64187;51.010;13.792;2023-03-29T09:44:55;7.72;;;3.92;;
75603;SDS011;64187;51.010;13.792;2023-03-29T09:50:29;6.20;;;3.13;;
75603;SDS011;64187;51.010;13.792;2023-03-29T09:55:35;5.05;;;3.13;;
75603;SDS011;64187;51.010;13.792;2023-03-29T10:00:45;4.22;;;2.63;;
75603;SDS011;64187;51.010;13.792;2023-03-29T10:05:45;8.82;;;3.45;;
75603;SDS011;64187;51.010;13.792;2023-03-29T10:11:07;5.78;;;3.38;;
75603;SDS011;64187;51.010;13.792;2023-03-29T10:16:22;4.70;;;3.10;;
75603;SDS011;64187;51.010;13.792;2023-03-29T10:21:27;5.30;;;2.72;;
75603;SDS011;64187;51.010;13.792;2023-03-29T10:26:40;5.20;;;2.70;;
75603;SDS011;64187;51.010;13.792;2023-03-29T10:31:43;10.80;;;2.63;;
75603;SDS011;64187;51.010;13.792;2023-03-29T10:36:43;3.78;;;3.13;;
75603;SDS011;64187;51.010;13.792;2023-03-29T10:41:49;6.43;;;3.03;;
75603;SDS011;64187;51.010;13.792;2023-03-29T10:46:50;3.65;;;2.78;;
75603;SDS011;64187;51.010;13.792;2023-03-29T10:51:49;5.20;;;3.42;;
75603;SDS011;64187;51.010;13.792;2023-03-29T10:57:00;6.57;;;4.05;;
75603;SDS011;64187;51.010;13.792;2023-03-29T11:17:52;6.32;;;4.18;;
75603;SDS011;64187;51.010;13.792;2023-03-29T11:23:44;6.68;;;4.20;;
75603;SDS011;64187;51.010;13.792;2023-03-29T11:28:56;7.68;;;3.90;;
75603;SDS011;64187;51.010;13.792;2023-03-29T11:34:03;6.53;;;3.80;;
75603;SDS011;64187;51.010;13.792;2023-03-29T11:44:21;8.25;;;5.35;;
75603;SDS011;64187;51.010;13.792;2023-03-29T11:54:34;8.70;;;5.20;;
75603;SDS011;64187;51.010;13.792;2023-03-29T12:04:57;8.70;;;5.60;;
75603;SDS011;64187;51.010;13.792;2023-03-29T12:10:19;8.43;;;4.80;;
75603;SDS011;64187;51.010;13.792;2023-03-29T12:15:20;10.00;;;5.18;;
75603;SDS011;64187;51.010;13.792;2023-03-29T12:20:23;11.43;;;6.20;;
75603;SDS011;64187;51.010;13.792;2023-03-29T12:25:29;8.93;;;5.63;;
75603;SDS011;64187;51.010;13.792;2023-03-29T12:30:41;11.23;;;5.15;;
75603;SDS011;64187;51.010;13.792;2023-03-29T12:41:25;10.77;;;6.45;;
75603;SDS011;64187;51.010;13.792;2023-03-29T12:46:44;12.60;;;7.22;;
75603;SDS011;64187;51.010;13.792;2023-03-29T12:51:43;13.05;;;7.20;;
75603;SDS011;64187;51.010;13.792;2023-03-29T12:56:53;11.98;;;7.63;;
75603;SDS011;64187;51.010;13.792;2023-03-29T13:02:41;13.82;;;7.88;;
75603;SDS011;64187;51.010;13.792;2023-03-29T13:12:24;13.70;;;7.40;;
75603;SDS011;64187;51.010;13.792;2023-03-29T13:17:33;14.95;;;7.95;;
75603;SDS011;64187;51.010;13.792;2023-03-29T13:22:39;14.65;;;8.30;;
75603;SDS011;64187;51.010;13.792;2023-03-29T13:33:00;15.60;;;8.00;;
75603;SDS011;64187;51.010;13.792;2023-03-29T13:43:32;16.38;;;7.97;;
75603;SDS011;64187;51.010;13.792;2023-03-29T13:48:45;13.52;;;8.88;;
75603;SDS011;64187;51.010;13.792;2023-03-29T13:59:17;16.02;;;9.25;;
75603;SDS011;64187;51.010;13.792;2023-03-29T14:04:25;13.60;;;8.18;;
75603;SDS011;64187;51.010;13.792;2023-03-29T14:09:28;59.75;;;32.03;;
75603;SDS011;64187;51.010;13.792;2023-03-29T14:14:30;16.35;;;8.90;;
75603;SDS011;64187;51.010;13.792;2023-03-29T14:19:31;14.00;;;7.78;;
75603;SDS011;64187;51.010;13.792;2023-03-29T14:24:34;13.13;;;8.25;;
75603;SDS011;64187;51.010;13.792;2023-03-29T14:29:36;12.02;;;7.63;;
75603;SDS011;64187;51.010;13.792;2023-03-29T14:34:35;8.52;;;5.50;;
75603;SDS011;64187;51.010;13.792;2023-03-29T14:39:34;7.05;;;4.72;;
75603;SDS011;64187;51.010;13.792;2023-03-29T14:44:34;7.88;;;4.93;;
75603;SDS011;64187;51.010;13.792;2023-03-29T14:49:32;7.45;;;4.78;;
75603;SDS011;64187;51.010;13.792;2023-03-29T14:54:43;9.85;;;5.78;;
75603;SDS011;64187;51.010;13.792;2023-03-29T14:59:50;11.05;;;6.50;;
75603;SDS011;64187;51.010;13.792;2023-03-29T15:05:01;6.43;;;4.68;;
75603;SDS011;64187;51.010;13.792;2023-03-29T15:10:03;5.55;;;3.67;;
75603;SDS011;64187;51.010;13.792;2023-03-29T15:15:04;7.30;;;4.07;;
75603;SDS011;64187;51.010;13.792;2023-03-29T15:25:19;9.73;;;5.35;;
75603;SDS011;64187;51.010;13.792;2023-03-29T15:30:18;9.27;;;4.60;;
75603;SDS011;64187;51.010;13.792;2023-03-29T15:35:21;6.75;;;4.93;;
75603;SDS011;64187;51.010;13.792;2023-03-29T15:40:22;9.40;;;4.68;;
75603;SDS011;64187;51.010;13.792;2023-03-29T15:45:25;8.40;;;5.13;;
75603;SDS011;64187;51.010;13.792;2023-03-29T15:50:24;7.95;;;4.70;;
75603;SDS011;64187;51.010;13.792;2023-03-29T15:55:26;8.38;;;6.45;;
75603;SDS011;64187;51.010;13.792;2023-03-29T16:05:25;7.00;;;3.63;;
75603;SDS011;64187;51.010;13.792;2023-03-29T16:10:24;7.43;;;3.95;;
75603;SDS011;64187;51.010;13.792;2023-03-29T16:15:23;6.85;;;3.97;;
75603;SDS011;64187;51.010;13.792;2023-03-29T16:20:24;7.45;;;5.85;;
75603;SDS011;64187;51.010;13.792;2023-03-29T16:25:23;10.90;;;6.63;;
75603;SDS011;64187;51.010;13.792;2023-03-29T16:30:23;12.27;;;8.93;;
75603;SDS011;64187;51.010;13.792;2023-03-29T16:35:26;12.40;;;8.20;;
75603;SDS011;64187;51.010;13.792;2023-03-29T16:40:28;13.25;;;8.00;;
75603;SDS011;64187;51.010;13.792;2023-03-29T16:45:27;13.73;;;8.48;;
75603;SDS011;64187;51.010;13.792;2023-03-29T16:50:27;15.25;;;8.85;;
75603;SDS011;64187;51.010;13.792;2023-03-29T16:55:25;14.88;;;8.60;;
75603;SDS011;64187;51.010;13.792;2023-03-29T17:00:25;15.27;;;8.75;;
75603;SDS011;64187;51.010;13.792;2023-03-29T17:05:24;16.75;;;10.50;;
75603;SDS011;64187;51.010;13.792;2023-03-29T17:10:23;18.08;;;11.13;;
75603;SDS011;64187;51.010;13.792;2023-03-29T17:15:23;17.80;;;10.80;;
75603;SDS011;64187;51.010;13.792;2023-03-29T17:20:22;17.75;;;11.48;;
75603;SDS011;64187;51.010;13.792;2023-03-29T17:25:21;14.73;;;10.70;;
75603;SDS011;64187;51.010;13.792;2023-03-29T17:30:20;15.45;;;9.60;;
75603;SDS011;64187;51.010;13.792;2023-03-29T17:35:19;16.05;;;10.05;;
75603;SDS011;64187;51.010;13.792;2023-03-29T17:40:19;18.85;;;11.27;;
75603;SDS011;64187;51.010;13.792;2023-03-29T17:45:18;17.05;;;11.02;;
75603;SDS011;64187;51.010;13.792;2023-03-29T17:50:17;17.95;;;9.82;;
75603;SDS011;64187;51.010;13.792;2023-03-29T17:55:16;16.33;;;9.90;;
75603;SDS011;64187;51.010;13.792;2023-03-29T18:00:15;15.35;;;10.15;;
75603;SDS011;64187;51.010;13.792;2023-03-29T18:05:15;14.38;;;9.65;;
75603;SDS011;64187;51.010;13.792;2023-03-29T18:10:14;14.77;;;10.10;;
75603;SDS011;64187;51.010;13.792;2023-03-29T18:15:13;18.10;;;9.48;;
75603;SDS011;64187;51.010;13.792;2023-03-29T18:20:12;19.20;;;13.35;;
75603;SDS011;64187;51.010;13.792;2023-03-29T18:25:11;18.70;;;12.55;;
75603;SDS011;64187;51.010;13.792;2023-03-29T18:30:10;18.65;;;11.80;;
75603;SDS011;64187;51.010;13.792;2023-03-29T18:35:11;16.67;;;10.60;;
75603;SDS011;64187;51.010;13.792;2023-03-29T18:40:10;16.00;;;10.23;;
75603;SDS011;64187;51.010;13.792;2023-03-29T18:45:09;14.60;;;9.82;;
75603;SDS011;64187;51.010;13.792;2023-03-29T18:50:09;12.15;;;8.82;;
75603;SDS011;64187;51.010;13.792;2023-03-29T18:55:09;13.27;;;8.57;;
75603;SDS011;64187;51.010;13.792;2023-03-29T19:00:09;25.77;;;15.75;;
75603;SDS011;64187;51.010;13.792;2023-03-29T19:05:09;13.38;;;9.13;;
75603;SDS011;64187;51.010;13.792;2023-03-29T19:10:08;15.80;;;9.98;;
75603;SDS011;64187;51.010;13.792;2023-03-29T19:15:07;15.68;;;9.05;;
75603;SDS011;64187;51.010;13.792;2023-03-29T19:20:07;13.75;;;8.70;;
75603;SDS011;64187;51.010;13.792;2023-03-29T19:25:10;14.90;;;9.27;;
75603;SDS011;64187;51.010;13.792;2023-03-29T19:30:09;15.18;;;8.93;;
75603;SDS011;64187;51.010;13.792;2023-03-29T19:35:08;18.35;;;9.80;;
75603;SDS011;64187;51.010;13.792;2023-03-29T19:40:07;12.02;;;8.52;;
75603;SDS011;64187;51.010;13.792;2023-03-29T19:45:09;12.95;;;7.90;;
75603;SDS011;64187;51.010;13.792;2023-03-29T19:50:08;15.38;;;8.82;;
75603;SDS011;64187;51.010;13.792;2023-03-29T19:55:09;15.85;;;11.35;;
75603;SDS011;64187;51.010;13.792;2023-03-29T20:00:08;13.63;;;8.20;;
75603;SDS011;64187;51.010;13.792;2023-03-29T20:05:10;13.20;;;8.48;;
75603;SDS011;64187;51.010;13.792;2023-03-29T20:10:09;11.25;;;7.78;;
75603;SDS011;64187;51.010;13.792;2023-03-29T20:15:08;15.63;;;8.35;;
75603;SDS011;64187;51.010;13.792;2023-03-29T20:20:08;11.73;;;7.57;;
75603;SDS011;64187;51.010;13.792;2023-03-29T20:25:07;13.10;;;8.77;;
75603;SDS011;64187;51.010;13.792;2023-03-29T20:30:07;11.02;;;8.13;;
75603;SDS011;64187;51.010;13.792;2023-03-29T20:35:07;11.50;;;8.57;;
75603;SDS011;64187;51.010;13.792;2023-03-29T20:40:07;14.18;;;8.07;;
75603;SDS011;64187;51.010;13.792;2023-03-29T20:45:06;13.90;;;8.15;;
75603;SDS011;64187;51.010;13.792;2023-03-29T20:50:06;17.00;;;9.20;;
75603;SDS011;64187;51.010;13.792;2023-03-29T20:55:06;12.98;;;7.65;;
75603;SDS011;64187;51.010;13.792;2023-03-29T21:00:05;13.05;;;8.15;;
75603;SDS011;64187;51.010;13.792;2023-03-29T21:05:09;17.42;;;8.25;;
75603;SDS011;64187;51.010;13.792;2023-03-29T21:10:08;13.25;;;7.15;;
75603;SDS011;64187;51.010;13.792;2023-03-29T21:15:11;13.30;;;7.50;;
75603;SDS011;64187;51.010;13.792;2023-03-29T21:20:11;12.10;;;7.65;;
75603;SDS011;64187;51.010;13.792;2023-03-29T21:25:11;14.55;;;7.65;;
75603;SDS011;64187;51.010;13.792;2023-03-29T21:30:12;10.60;;;6.97;;
75603;SDS011;64187;51.010;13.792;2023-03-29T21:35:11;11.48;;;6.75;;
75603;SDS011;64187;51.010;13.792;2023-03-29T21:40:11;10.85;;;6.85;;
75603;SDS011;64187;51.010;13.792;2023-03-29T21:45:10;10.85;;;6.63;;
75603;SDS011;64187;51.010;13.792;2023-03-29T21:50:09;14.27;;;7.55;;
75603;SDS011;64187;51.010;13.792;2023-03-29T21:55:08;11.68;;;6.60;;
75603;SDS011;64187;51.010;13.792;2023-03-29T22:00:08;11.02;;;7.78;;
75603;SDS011;64187;51.010;13.792;2023-03-29T22:05:08;11.25;;;6.75;;
75603;SDS011;64187;51.010;13.792;2023-03-29T22:10:08;9.70;;;6.07;;
75603;SDS011;64187;51.010;13.792;2023-03-29T22:15:09;11.82;;;6.50;;
75603;SDS011;64187;51.010;13.792;2023-03-29T22:20:10;10.48;;;5.78;;
75603;SDS011;64187;51.010;13.792;2023-03-29T22:25:12;10.80;;;5.95;;
75603;SDS011;64187;51.010;13.792;2023-03-29T22:30:12;10.20;;;5.93;;
75603;SDS011;64187;51.010;13.792;2023-03-29T22:35:13;10.60;;;5.90;;
75603;SDS011;64187;51.010;13.792;2023-03-29T22:40:12;10.38;;;6.20;;
75603;SDS011;64187;51.010;13.792;2023-03-29T22:45:11;11.15;;;5.75;;
75603;SDS011;64187;51.010;13.792;2023-03-29T22:50:10;10.15;;;5.40;;
75603;SDS011;64187;51.010;13.792;2023-03-29T22:55:08;10.68;;;5.88;;
75603;SDS011;64187;51.010;13.792;2023-03-29T23:00:08;8.98;;;5.93;;
75603;SDS011;64187;51.010;13.792;2023-03-29T23:05:07;10.27;;;6.13;;
75603;SDS011;64187;51.010;13.792;2023-03-29T23:10:07;9.25;;;5.63;;
75603;SDS011;64187;51.010;13.792;2023-03-29T23:15:06;12.50;;;6.15;;
75603;SDS011;64187;51.010;13.792;2023-03-29T23:20:06;14.32;;;6.30;;
75603;SDS011;64187;51.010;13.792;2023-03-29T23:25:08;10.73;;;5.70;;
75603;SDS011;64187;51.010;13.792;2023-03-29T23:30:07;8.70;;;5.78;;
75603;SDS011;64187;51.010;13.792;2023-03-29T23:35:06;9.00;;;5.70;;
75603;SDS011;64187;51.010;13.792;2023-03-29T23:40:05;9.35;;;5.55;;
75603;SDS011;64187;51.010;13.792;2023-03-29T23:45:12;8.18;;;4.95;;
75603;SDS011;64187;51.010;13.792;2023-03-29T23:50:15;10.02;;;5.32;;
75603;SDS011;64187;51.010;13.792;2023-03-29T23:55:14;8.45;;;5.50;;
